Time;durP1;ratioP1;P1;durP2;ratioP2;P2;SDS_P1;SDS_P2;PMS_P1;PMS_P2;Temp;Humidity;BMP_temperature;BMP_pressure;BME280_temperature;BME280_humidity;BME280_pressure;Samples;Min_cycle;Max_cycle;Signal;HPM_P1;HPM_P2
2022/09/19 00:01:42;;;;;;;;;0.67;0.67;;;;;12.51;63.90;101796.56;5045368;28;9321;-66
2022/09/19 00:04:15;;;;;;;;;1.67;0.00;;;;;12.55;64.27;101796.00;5050054;28;9331;-66
2022/09/19 00:06:44;;;;;;;;;0.33;0.33;;;;;12.56;64.22;101788.75;5038473;28;9262;-66
2022/09/19 00:09:15;;;;;;;;;2.00;0.00;;;;;12.57;64.35;101795.84;5044716;28;9301;-65
2022/09/19 00:11:44;;;;;;;;;1.00;1.00;;;;;12.56;64.68;101786.91;5048877;28;9391;-66
2022/09/19 00:14:13;;;;;;;;;0.33;0.00;;;;;12.55;64.76;101792.47;5035791;28;9468;-65
2022/09/19 00:16:44;;;;;;;;;1.00;0.67;;;;;12.55;64.35;101793.31;5047684;28;9375;-66
2022/09/19 00:19:14;;;;;;;;;0.00;0.00;;;;;12.56;64.44;101791.47;5037994;28;9304;-66
2022/09/19 00:21:44;;;;;;;;;0.00;0.00;;;;;12.56;64.63;101792.31;5037308;28;9355;-65
2022/09/19 00:26:59;;;;;;;;;0.00;0.00;;;;;12.56;64.81;101794.16;5039050;28;9911;-66
2022/09/19 00:29:26;;;;;;;;;1.00;0.00;;;;;12.53;64.66;101791.81;5061053;28;9416;-66
2022/09/19 00:31:52;;;;;;;;;1.00;1.00;;;;;12.53;64.99;101794.53;5049581;28;9224;-66
2022/09/19 00:34:20;;;;;;;;;0.00;0.00;;;;;12.51;64.82;101793.84;5049793;28;9287;-66
2022/09/19 00:36:47;;;;;;;;;0.00;0.00;;;;;12.52;64.95;101792.84;5040666;28;9320;-65
2022/09/19 00:39:16;;;;;;;;;1.00;1.00;;;;;12.46;65.20;101790.88;5024932;28;9243;-65
2022/09/19 00:41:44;;;;;;;;;0.00;0.00;;;;;12.45;64.94;101797.31;5049269;28;9365;-66
2022/09/19 00:44:22;;;;;;;;;1.00;0.33;;;;;12.41;65.42;101799.53;5041645;28;9201;-65
2022/09/19 00:47:02;;;;;;;;;0.33;0.33;;;;;12.40;65.20;101792.47;5039996;28;9369;-65
2022/09/19 00:49:33;;;;;;;;;0.00;0.00;;;;;12.41;65.31;101796.00;5038810;28;9369;-65
2022/09/19 00:52:03;;;;;;;;;1.33;0.00;;;;;12.36;64.99;101794.69;5043200;28;9234;-66
2022/09/19 00:54:40;;;;;;;;;1.67;0.00;;;;;12.35;64.95;101792.97;5048220;28;9328;-65
2022/09/19 00:57:09;;;;;;;;;0.33;0.33;;;;;12.37;65.24;101801.75;5048722;28;9567;-65
2022/09/19 00:59:38;;;;;;;;;1.00;1.00;;;;;12.36;64.95;101789.28;5047360;28;9348;-65
2022/09/19 01:02:06;;;;;;;;;0.67;0.00;;;;;12.33;64.91;101788.81;5039456;28;9367;-66
2022/09/19 01:04:35;;;;;;;;;0.00;0.00;;;;;12.33;65.07;101791.50;5037652;28;9369;-66
2022/09/19 01:07:28;;;;;;;;;0.50;0.00;;;;;12.32;65.12;101796.06;5044875;28;9361;-66
2022/09/19 01:10:18;;;;;;;;;6.00;0.00;;;;;12.33;64.46;101802.31;5046857;28;9385;-66
2022/09/19 01:13:09;;;;;;;;;0.75;0.75;;;;;12.31;64.52;101807.03;5060845;28;9559;-66
2022/09/19 01:15:53;;;;;;;;;0.00;0.00;;;;;12.30;64.63;101816.16;5048923;28;9525;-66
2022/09/19 01:18:34;;;;;;;;;0.00;0.00;;;;;12.33;64.95;101813.94;5043406;28;9392;-66
2022/09/19 01:24:22;;;;;;;;;2.00;0.00;;;;;12.35;64.70;101811.88;5040200;28;9523;-66
2022/09/19 01:26:59;;;;;;;;;0.00;0.00;;;;;12.35;64.96;101808.34;5040650;28;9438;-66
2022/09/19 01:29:37;;;;;;;;;0.00;0.00;;;;;12.36;64.91;101810.88;5043701;28;9629;-66
2022/09/19 01:32:10;;;;;;;;;1.00;0.00;;;;;12.38;65.29;101808.00;5037184;28;10200;-66
2022/09/19 01:34:44;;;;;;;;;0.00;0.00;;;;;12.40;65.48;101815.91;5029078;28;9483;-66
2022/09/19 01:37:16;;;;;;;;;0.00;0.00;;;;;12.38;64.93;101824.19;5038959;28;9609;-66
2022/09/19 01:39:48;;;;;;;;;2.00;1.00;;;;;12.37;65.22;101814.41;5047385;28;10118;-66
2022/09/19 01:42:19;;;;;;;;;2.00;1.00;;;;;12.38;65.69;101808.00;5041594;28;9371;-66
2022/09/19 01:44:45;;;;;;;;;1.00;1.00;;;;;12.40;65.64;101811.38;5047759;28;9444;-66
2022/09/19 01:47:40;;;;;;;;;0.00;0.00;;;;;12.45;65.66;101808.94;5029683;28;9412;-66
2022/09/19 01:50:27;;;;;;;;;1.75;1.00;;;;;12.48;65.86;101813.16;5039766;28;9405;-66
2022/09/19 01:53:09;;;;;;;;;1.67;0.00;;;;;12.48;65.78;101814.00;5039465;28;9435;-66
2022/09/19 01:56:17;;;;;;;;;0.00;0.00;;;;;12.48;65.97;101819.38;5008133;28;10146;-66
2022/09/19 01:58:50;;;;;;;;;0.00;0.00;;;;;12.52;65.68;101828.81;5047320;28;9386;-66
2022/09/19 02:01:42;;;;;;;;;0.00;0.00;;;;;12.56;65.75;101823.88;5057981;28;9332;-66
2022/09/19 02:04:18;;;;;;;;;1.67;1.00;;;;;12.56;66.07;101827.41;5052952;28;9171;-66
2022/09/19 02:06:58;;;;;;;;;0.00;0.00;;;;;12.59;66.06;101837.00;5043790;28;9381;-66
2022/09/19 02:09:39;;;;;;;;;0.00;0.00;;;;;12.61;66.59;101826.84;5050851;28;9475;-66
2022/09/19 02:12:09;;;;;;;;;0.00;0.00;;;;;12.61;67.10;101824.16;5034999;28;9301;-66
2022/09/19 02:14:40;;;;;;;;;0.00;0.00;;;;;12.60;67.37;101823.31;5044160;28;9405;-67
2022/09/19 02:17:14;;;;;;;;;0.00;0.00;;;;;12.60;67.38;101827.88;5037275;28;9320;-66
2022/09/19 02:19:56;;;;;;;;;3.33;1.00;;;;;12.61;67.66;101829.56;5059242;28;9323;-66
2022/09/19 02:22:31;;;;;;;;;0.00;0.00;;;;;12.60;67.87;101831.44;5048153;28;9492;-65
2022/09/19 02:25:05;;;;;;;;;0.00;0.00;;;;;12.59;67.67;101832.44;5050643;28;9390;-65
2022/09/19 02:27:38;;;;;;;;;0.33;0.00;;;;;12.61;67.60;101838.50;5051230;28;9438;-66
2022/09/19 02:30:09;;;;;;;;;0.00;0.00;;;;;12.61;67.54;101841.19;5043668;28;9319;-66
2022/09/19 02:32:47;;;;;;;;;0.00;0.00;;;;;12.54;68.06;101840.25;5036276;28;9989;-66
2022/09/19 02:35:36;;;;;;;;;1.00;0.00;;;;;12.57;68.03;101852.56;5052958;28;9448;-66
2022/09/19 02:38:14;;;;;;;;;1.50;1.00;;;;;12.58;68.02;101840.72;5042703;28;9487;-66
2022/09/19 02:40:51;;;;;;;;;1.67;0.00;;;;;12.59;68.25;101845.94;5039135;28;9377;-66
2022/09/19 02:43:37;;;;;;;;;0.00;0.00;;;;;12.60;68.30;101842.22;5027194;28;9316;-66
2022/09/19 02:46:10;;;;;;;;;0.67;0.00;;;;;12.61;68.30;101845.78;5049093;28;11748;-66
2022/09/19 02:48:45;;;;;;;;;1.33;1.00;;;;;12.61;68.42;101846.59;5020419;28;9410;-66
2022/09/19 02:51:24;;;;;;;;;2.00;0.00;;;;;12.64;68.61;101850.81;5045431;28;9310;-66
2022/09/19 02:54:02;;;;;;;;;2.00;0.00;;;;;12.60;68.79;101844.94;5049028;28;9391;-66
2022/09/19 02:56:34;;;;;;;;;1.00;0.00;;;;;12.54;69.13;101844.81;5063074;28;9310;-66
2022/09/19 02:59:06;;;;;;;;;1.00;0.00;;;;;12.58;68.86;101843.44;5058037;28;9297;-66
2022/09/19 03:01:44;;;;;;;;;0.00;0.00;;;;;12.59;69.32;101839.69;5045150;28;9945;-66
2022/09/19 03:04:17;;;;;;;;;1.00;0.00;;;;;12.62;69.23;101842.88;5047907;28;9320;-66
2022/09/19 03:07:13;;;;;;;;;2.67;1.00;;;;;12.61;69.25;101845.78;5050244;28;9448;-66
2022/09/19 03:10:02;;;;;;;;;0.33;0.33;;;;;12.56;69.04;101840.09;5033214;28;9363;-65
2022/09/19 03:13:00;;;;;;;;;0.00;0.00;;;;;12.55;68.82;101841.91;5063849;28;9441;-65
2022/09/19 03:15:37;;;;;;;;;1.00;1.00;;;;;12.57;68.61;101839.06;5060635;28;9168;-65
2022/09/19 03:18:08;;;;;;;;;1.67;1.00;;;;;12.58;68.66;101840.72;5063248;22;9374;-67
2022/09/19 03:20:39;;;;;;;;;2.00;0.67;;;;;12.58;68.47;101846.97;5043960;28;9314;-66
2022/09/19 03:23:08;;;;;;;;;1.00;1.00;;;;;12.60;68.47;101834.13;5035722;28;9298;-66
2022/09/19 03:25:35;;;;;;;;;0.00;0.00;;;;;12.61;68.08;101849.31;5043291;28;9357;-66
2022/09/19 03:28:02;;;;;;;;;0.00;0.00;;;;;12.66;68.09;101847.91;5043587;28;9335;-65
2022/09/19 03:30:30;;;;;;;;;0.00;0.00;;;;;12.68;67.92;101848.56;5032443;28;9181;-66
2022/09/19 03:32:59;;;;;;;;;0.00;0.00;;;;;12.70;67.89;101850.06;5023052;28;10179;-66
2022/09/19 03:35:25;;;;;;;;;0.00;0.00;;;;;12.71;68.01;101848.19;5011099;28;9973;-66
2022/09/19 03:37:52;;;;;;;;;0.00;0.00;;;;;12.71;68.05;101845.50;5039392;28;10156;-67
2022/09/19 03:40:22;;;;;;;;;1.00;1.00;;;;;12.69;68.09;101858.38;5028468;28;9331;-66
2022/09/19 03:42:52;;;;;;;;;0.00;0.00;;;;;12.65;68.22;101857.88;5024446;28;9278;-66
2022/09/19 03:45:21;;;;;;;;;0.00;0.00;;;;;12.65;68.03;101859.75;5023886;28;9386;-67
2022/09/19 03:47:47;;;;;;;;;0.00;0.00;;;;;12.62;68.32;101860.94;5023254;28;9343;-64
2022/09/19 03:50:14;;;;;;;;;0.00;0.00;;;;;12.63;68.50;101862.63;5031538;28;9834;-65
2022/09/19 03:52:50;;;;;;;;;0.00;0.00;;;;;12.65;68.19;101859.75;5036228;28;9308;-66
2022/09/19 03:55:17;;;;;;;;;0.00;0.00;;;;;12.63;68.41;101865.31;5034899;28;9348;-65
2022/09/19 03:57:45;;;;;;;;;0.00;0.00;;;;;12.67;68.36;101861.22;5023282;28;9360;-66
2022/09/19 04:00:12;;;;;;;;;0.00;0.00;;;;;12.71;68.40;101864.41;5012933;28;9312;-65
2022/09/19 04:02:45;;;;;;;;;0.33;0.33;;;;;12.72;68.49;101866.06;5023821;28;9320;-66
2022/09/19 04:05:14;;;;;;;;;1.00;1.00;;;;;12.75;68.50;101866.56;5031770;28;9316;-66
2022/09/19 04:07:41;;;;;;;;;1.00;1.00;;;;;12.76;68.58;101862.00;5027967;28;9376;-67
2022/09/19 04:10:07;;;;;;;;;1.00;0.00;;;;;12.75;68.43;101863.00;5037219;28;9379;-66
2022/09/19 04:12:35;;;;;;;;;4.00;1.00;;;;;12.74;68.79;101873.00;5022612;28;9297;-65
2022/09/19 04:15:02;;;;;;;;;0.00;0.00;;;;;12.74;68.87;101878.38;5032875;28;9333;-65
2022/09/19 04:17:29;;;;;;;;;3.00;0.00;;;;;12.73;68.75;101876.72;5026168;28;9235;-65
2022/09/19 04:20:03;;;;;;;;;0.00;0.00;;;;;12.73;68.97;101876.72;5033560;28;9391;-65
2022/09/19 04:22:39;;;;;;;;;1.00;0.00;;;;;12.75;68.80;101880.06;5030960;28;9325;-65
2022/09/19 04:25:14;;;;;;;;;0.00;0.00;;;;;12.74;68.89;101883.78;5029567;28;9320;-66
2022/09/19 04:27:56;;;;;;;;;0.00;0.00;;;;;12.76;69.19;101875.50;5027719;28;9252;-66
2022/09/19 04:30:23;;;;;;;;;0.00;0.00;;;;;12.74;69.09;101877.56;5034205;28;9328;-66
2022/09/19 04:32:52;;;;;;;;;0.33;0.00;;;;;12.72;69.18;101876.88;5024373;28;9338;-66
2022/09/19 04:35:20;;;;;;;;;0.00;0.00;;;;;12.75;69.35;101881.94;5025313;28;9306;-65
2022/09/19 04:37:49;;;;;;;;;0.00;0.00;;;;;12.77;68.83;101882.59;5024232;28;9235;-65
2022/09/19 04:40:16;;;;;;;;;1.50;0.00;;;;;12.74;69.13;101888.38;5035598;28;9301;-67
2022/09/19 04:42:45;;;;;;;;;0.67;0.67;;;;;12.75;69.11;101880.06;5032634;28;10087;-66
2022/09/19 04:45:20;;;;;;;;;1.00;1.00;;;;;12.76;69.15;101881.75;5040162;28;9301;-66
2022/09/19 04:48:02;;;;;;;;;0.00;0.00;;;;;12.73;69.34;101895.63;5021719;28;9375;-65
2022/09/19 04:50:30;;;;;;;;;0.00;0.00;;;;;12.73;69.25;101892.94;5018111;28;9321;-68
2022/09/19 04:52:59;;;;;;;;;0.00;0.00;;;;;12.74;69.15;101894.59;5020093;28;9320;-66
2022/09/19 04:55:27;;;;;;;;;0.00;0.00;;;;;12.73;69.06;101898.34;5018901;28;9261;-65
2022/09/19 04:57:55;;;;;;;;;0.00;0.00;;;;;12.74;69.12;101901.88;5024140;28;9417;-64
2022/09/19 05:00:41;;;;;;;;;1.00;1.00;;;;;12.69;69.52;101907.81;5030705;28;9436;-64
2022/09/19 05:03:15;;;;;;;;;1.00;1.00;;;;;12.67;69.42;101901.75;5026639;28;9455;-65
2022/09/19 05:05:50;;;;;;;;;3.50;1.00;;;;;12.68;70.03;101911.56;5030254;28;10080;-66
2022/09/19 05:08:25;;;;;;;;;3.25;0.00;;;;;12.69;70.68;101902.41;5028249;28;9540;-64
2022/09/19 05:10:55;;;;;;;;;0.00;0.00;;;;;12.70;70.76;101911.38;5038403;28;9492;-66
2022/09/19 05:13:23;;;;;;;;;4.00;0.50;;;;;12.66;70.97;101912.75;5035171;28;9470;-65
2022/09/19 05:15:51;;;;;;;;;1.00;1.00;;;;;12.60;71.61;101915.16;5025105;28;9394;-63
2022/09/19 05:18:21;;;;;;;;;1.00;0.00;;;;;12.61;71.79;101914.13;5023786;28;9472;-67
2022/09/19 05:20:52;;;;;;;;;0.00;0.00;;;;;12.57;71.89;101909.28;5020757;28;9388;-65
2022/09/19 05:23:22;;;;;;;;;0.00;0.00;;;;;12.57;71.88;101910.13;5030153;28;9291;-64
2022/09/19 05:25:52;;;;;;;;;0.00;0.00;;;;;12.57;71.81;101914.69;5041498;28;9434;-64
2022/09/19 05:28:21;;;;;;;;;1.00;1.00;;;;;12.55;71.81;101917.53;5031759;28;9470;-66
2022/09/19 05:30:54;;;;;;;;;0.00;0.00;;;;;12.53;71.99;101914.19;5029255;28;9398;-64
2022/09/19 05:33:28;;;;;;;;;0.75;0.75;;;;;12.57;71.95;101920.09;5024194;28;9383;-65
2022/09/19 05:36:00;;;;;;;;;0.00;0.00;;;;;12.61;71.79;101910.59;5027858;28;10221;-66
2022/09/19 05:38:55;;;;;;;;;0.00;0.00;;;;;12.61;72.08;101921.41;5036757;28;9426;-65
2022/09/19 05:41:42;;;;;;;;;0.00;0.00;;;;;12.60;72.47;101923.25;5026701;28;9328;-66
2022/09/19 05:44:16;;;;;;;;;0.00;0.00;;;;;12.60;72.71;101925.97;5026766;28;10069;-65
2022/09/19 05:46:46;;;;;;;;;0.33;0.00;;;;;12.64;72.78;101931.84;5030194;28;9317;-65
2022/09/19 05:49:12;;;;;;;;;0.00;0.00;;;;;12.66;72.66;101932.50;5019217;28;9370;-65
2022/09/19 05:51:39;;;;;;;;;0.00;0.00;;;;;12.68;72.61;101935.00;5030641;28;9242;-65
2022/09/19 05:54:10;;;;;;;;;1.00;0.00;;;;;12.70;72.89;101936.50;5038655;28;9235;-63
2022/09/19 05:56:44;;;;;;;;;0.00;0.00;;;;;12.72;72.96;101934.47;5046055;28;9950;-65
2022/09/19 05:59:11;;;;;;;;;1.00;0.33;;;;;12.73;72.79;101940.72;5034887;28;9316;-66
2022/09/19 06:01:40;;;;;;;;;0.25;0.25;;;;;12.73;73.02;101948.81;5019258;28;9463;-67
2022/09/19 06:04:14;;;;;;;;;1.00;0.00;;;;;12.73;73.08;101948.81;5002926;28;9367;-66
2022/09/19 06:06:41;;;;;;;;;0.00;0.00;;;;;12.74;72.98;101947.81;5019489;28;9442;-64
2022/09/19 06:09:08;;;;;;;;;0.00;0.00;;;;;12.77;73.02;101942.88;5018034;28;10159;-66
2022/09/19 06:11:40;;;;;;;;;0.00;0.00;;;;;12.78;73.12;101949.94;5028296;28;9459;-65
2022/09/19 06:14:18;;;;;;;;;0.25;0.00;;;;;12.79;72.87;101950.78;5031144;28;9316;-67
2022/09/19 06:16:47;;;;;;;;;1.00;1.00;;;;;12.79;72.83;101953.50;5021006;28;9508;-66
2022/09/19 06:19:16;;;;;;;;;0.00;0.00;;;;;12.79;72.98;101953.50;5016081;28;10107;-66
2022/09/19 06:21:48;;;;;;;;;0.00;0.00;;;;;12.77;72.78;101964.50;5011078;28;9386;-66
2022/09/19 06:24:15;;;;;;;;;0.00;0.00;;;;;12.77;72.68;101964.50;5027719;28;10095;-67
2022/09/19 06:26:42;;;;;;;;;0.00;0.00;;;;;12.78;72.40;101960.75;5027897;28;9379;-66
2022/09/19 06:29:09;;;;;;;;;0.00;0.00;;;;;12.79;72.04;101962.44;5011291;28;9494;-66
2022/09/19 06:31:39;;;;;;;;;1.00;0.00;;;;;12.81;71.74;101967.69;5008539;28;9587;-66
2022/09/19 06:34:24;;;;;;;;;0.00;0.00;;;;;12.79;71.15;101967.00;5008829;28;9241;-66
2022/09/19 06:37:12;;;;;;;;;0.00;0.00;;;;;12.80;71.10;101968.69;5011526;28;9496;-66
2022/09/19 06:39:39;;;;;;;;;1.00;0.00;;;;;12.84;71.24;101978.09;5012322;28;9461;-66
2022/09/19 06:42:25;;;;;;;;;0.00;0.00;;;;;12.87;70.96;101972.34;5021550;28;9333;-66
2022/09/19 06:45:17;;;;;;;;;0.00;0.00;;;;;12.89;70.91;101967.59;5016607;28;9154;-67
2022/09/19 06:48:00;;;;;;;;;0.00;0.00;;;;;12.93;70.86;101965.38;5022695;28;9412;-66
2022/09/19 06:50:47;;;;;;;;;1.33;0.33;;;;;12.96;70.84;101975.81;5020826;28;9312;-66
2022/09/19 06:53:17;;;;;;;;;0.00;0.00;;;;;12.97;70.74;101980.22;5021341;28;9308;-66
2022/09/19 06:55:45;;;;;;;;;0.00;0.00;;;;;12.97;70.74;101981.06;5019277;28;9262;-66
2022/09/19 06:58:17;;;;;;;;;0.00;0.00;;;;;12.99;70.61;101988.97;5011703;28;9243;-67
2022/09/19 07:00:45;;;;;;;;;0.00;0.00;;;;;13.02;70.57;101985.91;5024168;28;9393;-65
2022/09/19 07:03:17;;;;;;;;;0.00;0.00;;;;;13.06;70.74;101979.94;5031089;28;10015;-66
2022/09/19 07:05:51;;;;;;;;;0.00;0.00;;;;;13.13;70.76;101987.34;5030808;28;9284;-66
2022/09/19 07:08:25;;;;;;;;;0.00;0.00;;;;;13.16;70.68;101990.50;5030525;28;9397;-66
2022/09/19 07:10:56;;;;;;;;;0.00;0.00;;;;;13.20;70.77;101988.25;5022954;28;10231;-66
2022/09/19 07:13:23;;;;;;;;;0.33;0.33;;;;;13.22;70.46;102000.59;5015721;28;9259;-66
2022/09/19 07:16:01;;;;;;;;;3.00;1.33;;;;;13.26;70.50;102001.94;5011210;28;10003;-68
2022/09/19 07:18:28;;;;;;;;;4.67;1.33;;;;;13.30;70.29;101997.84;5010587;28;9314;-68
2022/09/19 07:20:59;;;;;;;;;1.00;1.00;;;;;13.34;70.07;102007.25;5010925;28;9418;-68
2022/09/19 07:23:31;;;;;;;;;1.33;1.33;;;;;13.35;69.90;102006.22;5010593;28;9455;-66
2022/09/19 07:26:16;;;;;;;;;1.00;1.00;;;;;13.39;69.88;102000.47;5017041;28;9307;-65
2022/09/19 07:28:42;;;;;;;;;0.33;0.33;;;;;13.45;69.69;102002.41;5030264;28;9166;-68
2022/09/19 07:31:10;;;;;;;;;1.00;1.00;;;;;13.48;69.83;102008.28;5011096;28;9323;-68
2022/09/19 07:33:39;;;;;;;;;0.00;0.00;;;;;13.57;69.91;102009.03;5010329;28;9229;-67
2022/09/19 07:36:06;;;;;;;;;1.00;1.00;;;;;13.63;69.33;102013.72;5010303;28;9200;-69
2022/09/19 07:38:35;;;;;;;;;0.33;0.33;;;;;13.73;69.16;102008.91;5018375;28;9275;-67
2022/09/19 07:41:07;;;;;;;;;0.00;0.00;;;;;13.78;68.80;102021.88;5029407;28;9252;-68
2022/09/19 07:43:39;;;;;;;;;1.33;1.00;;;;;13.82;68.59;102020.47;5011794;28;9906;-66
2022/09/19 07:46:35;;;;;;;;;1.00;1.00;;;;;13.75;68.36;102023.06;4990121;28;8995;-69
2022/09/19 07:49:01;;;;;;;;;0.00;0.00;;;;;13.74;68.29;102010.56;5024319;28;9044;-65
2022/09/19 07:51:51;;;;;;;;;2.00;0.00;;;;;13.74;68.26;102024.09;5030122;28;8920;-67
2022/09/19 07:54:18;;;;;;;;;0.00;0.00;;;;;13.73;68.12;102030.53;5030432;28;9005;-67
2022/09/19 07:56:47;;;;;;;;;1.00;0.00;;;;;13.75;68.01;102024.94;5030054;28;9088;-67
2022/09/19 07:59:14;;;;;;;;;0.00;0.00;;;;;13.71;67.42;102031.75;5026622;28;9138;-67
2022/09/19 08:01:52;;;;;;;;;0.33;0.33;;;;;13.61;67.27;102032.00;5014060;28;8932;-66
2022/09/19 08:04:38;;;;;;;;;0.00;0.00;;;;;13.64;66.56;102037.06;5030603;28;9180;-66
2022/09/19 08:07:06;;;;;;;;;1.00;1.00;;;;;13.70;66.68;102041.72;5029606;28;8924;-67
2022/09/19 08:09:35;;;;;;;;;0.00;0.00;;;;;13.78;66.50;102043.50;5030356;28;9072;-67
2022/09/19 08:12:28;;;;;;;;;0.00;0.00;;;;;13.84;66.48;102050.88;5012641;28;8951;-67
2022/09/19 08:15:03;;;;;;;;;1.00;1.00;;;;;13.82;66.33;102061.91;5010274;28;9066;-67
2022/09/19 08:17:29;;;;;;;;;0.00;0.00;;;;;13.81;66.22;102062.94;5009632;28;9184;-66
2022/09/19 08:19:56;;;;;;;;;0.00;0.00;;;;;13.84;66.70;102067.94;5010412;28;9184;-65
2022/09/19 08:22:23;;;;;;;;;0.00;0.00;;;;;13.81;68.13;102065.63;5010238;28;9020;-67
2022/09/19 08:24:56;;;;;;;;;0.00;0.00;;;;;13.78;69.31;102065.16;5020688;28;9156;-67
2022/09/19 08:27:23;;;;;;;;;0.67;0.00;;;;;13.77;69.81;102068.88;5010047;28;9177;-66
2022/09/19 08:29:49;;;;;;;;;0.00;0.00;;;;;13.76;70.22;102068.03;5011365;28;8934;-63
2022/09/19 08:32:16;;;;;;;;;1.00;0.00;;;;;13.76;70.89;102073.44;5009878;28;9774;-65
2022/09/19 08:34:43;;;;;;;;;0.00;0.00;;;;;13.76;71.12;102065.34;5016670;28;9162;-66
2022/09/19 08:37:10;;;;;;;;;0.00;0.00;;;;;13.79;71.19;102073.09;5031725;28;8920;-66
2022/09/19 08:40:15;;;;;;;;;1.00;0.67;;;;;13.79;71.40;102075.78;5019649;28;8928;-66
2022/09/19 08:42:51;;;;;;;;;0.00;0.00;;;;;13.80;71.51;102071.22;5032274;28;8987;-64
2022/09/19 08:45:53;;;;;;;;;0.00;0.00;;;;;13.85;71.72;102072.38;5032369;28;9048;-66
2022/09/19 08:48:27;;;;;;;;;0.00;0.00;;;;;13.85;71.47;102072.38;5013948;28;9090;-66
2022/09/19 08:51:03;;;;;;;;;0.00;0.00;;;;;13.92;71.49;102074.31;5030736;28;9920;-66
2022/09/19 08:53:37;;;;;;;;;0.00;0.00;;;;;13.92;71.61;102064.31;5022445;28;9088;-66
2022/09/19 08:56:04;;;;;;;;;1.00;0.00;;;;;14.01;71.70;102073.19;5009921;28;9017;-66
2022/09/19 08:58:34;;;;;;;;;0.00;0.00;;;;;14.07;71.47;102065.16;5009661;28;9712;-64
2022/09/19 09:01:22;;;;;;;;;3.00;1.00;;;;;14.16;71.00;102059.66;5002320;28;8937;-64
2022/09/19 09:04:30;;;;;;;;;1.00;1.00;;;;;14.27;70.66;102072.72;5013195;28;8908;-64
2022/09/19 09:07:16;;;;;;;;;1.67;1.00;;;;;14.28;70.63;102077.09;5020916;28;8845;-65
2022/09/19 09:10:09;;;;;;;;;1.00;0.00;;;;;14.26;70.62;102065.59;5031455;28;8938;-66
2022/09/19 09:12:51;;;;;;;;;0.00;0.00;;;;;14.21;70.84;102076.16;5013780;28;8844;-67
2022/09/19 09:15:28;;;;;;;;;0.67;0.67;;;;;14.15;70.90;102074.22;5029125;28;9011;-67
2022/09/19 09:18:17;;;;;;;;;0.00;0.00;;;;;14.12;70.81;102064.59;5027645;28;9023;-67
2022/09/19 09:21:06;;;;;;;;;0.00;0.00;;;;;14.20;70.41;102071.78;5018422;28;8931;-67
2022/09/19 09:23:44;;;;;;;;;0.33;0.33;;;;;14.31;70.52;102074.03;5010936;28;8925;-67
2022/09/19 09:26:28;;;;;;;;;1.00;0.50;;;;;14.40;70.37;102070.16;5009023;28;8935;-65
2022/09/19 09:29:11;;;;;;;;;0.33;0.00;;;;;14.48;69.54;102072.78;5009258;28;8839;-66
2022/09/19 09:31:57;;;;;;;;;0.00;0.00;;;;;14.51;68.92;102077.84;5009202;28;9013;-66
2022/09/19 09:35:01;;;;;;;;;1.25;1.00;;;;;14.46;68.01;102084.81;5021157;28;9273;-67
2022/09/19 09:37:36;;;;;;;;;0.00;0.00;;;;;14.44;67.71;102084.19;5028501;28;8844;-66
2022/09/19 09:43:17;;;;;;;;;0.00;0.00;;;;;14.41;68.01;102081.84;5028830;28;9322;-68
2022/09/19 09:45:49;;;;;;;;;0.00;0.00;;;;;14.32;67.54;102081.09;5028717;28;9022;-65
2022/09/19 09:48:33;;;;;;;;;1.00;0.00;;;;;14.28;67.32;102079.81;5013501;28;9004;-66
2022/09/19 09:51:21;;;;;;;;;0.00;0.00;;;;;14.23;66.98;102085.78;5009993;28;9063;-66
2022/09/19 09:57:36;;;;;;;;;0.00;0.00;;;;;14.20;67.90;102099.69;5008761;28;8915;-67
2022/09/19 10:03:36;;;;;;;;;0.00;0.00;;;;;14.10;69.78;102112.69;5009017;28;8997;-66
2022/09/19 10:06:25;;;;;;;;;0.00;0.00;;;;;14.02;70.57;102105.50;5024277;28;8972;-65
2022/09/19 10:09:20;;;;;;;;;0.67;0.67;;;;;13.92;70.33;102115.75;5014571;28;9074;-66
2022/09/19 10:12:03;;;;;;;;;0.00;0.00;;;;;13.87;71.53;102101.94;5031230;28;9086;-66
2022/09/19 10:14:55;;;;;;;;;0.00;0.00;;;;;13.82;72.03;102098.94;5012173;28;10004;-67
2022/09/19 10:17:42;;;;;;;;;0.00;0.00;;;;;13.76;72.58;102097.81;5031541;28;9040;-67
2022/09/19 10:20:27;;;;;;;;;0.00;0.00;;;;;13.75;72.77;102096.13;5032470;28;9108;-66
2022/09/19 10:22:57;;;;;;;;;0.00;0.00;;;;;13.85;72.97;102095.84;5032206;28;9206;-67
2022/09/19 10:25:26;;;;;;;;;0.00;0.00;;;;;13.91;73.12;102102.41;5032153;28;9736;-67
2022/09/19 10:27:54;;;;;;;;;0.00;0.00;;;;;13.99;72.95;102097.75;5029776;28;9157;-67
2022/09/19 10:30:33;;;;;;;;;0.00;0.00;;;;;13.97;72.03;102101.66;5021758;28;9276;-67
2022/09/19 10:33:22;;;;;;;;;0.00;0.00;;;;;13.91;71.87;102092.41;5012609;28;9027;-68
2022/09/19 10:35:58;;;;;;;;;0.67;0.00;;;;;14.01;72.21;102103.81;5012026;28;9167;-66
2022/09/19 10:38:26;;;;;;;;;1.67;0.33;;;;;14.04;72.46;102095.31;5011691;28;9070;-67
2022/09/19 10:40:57;;;;;;;;;0.33;0.00;;;;;14.12;72.25;102101.66;5021958;28;8914;-66
2022/09/19 10:44:08;;;;;;;;;0.00;0.00;;;;;14.18;72.46;102109.91;5030409;28;8982;-66
2022/09/19 10:46:44;;;;;;;;;0.00;0.00;;;;;14.07;72.00;102115.78;5012913;28;8873;-66
2022/09/19 10:49:46;;;;;;;;;1.00;0.00;;;;;13.99;72.53;102116.69;5012132;28;8932;-67
2022/09/19 10:52:30;;;;;;;;;1.00;1.00;;;;;13.80;73.24;102119.94;5011830;28;9729;-67
2022/09/19 10:55:22;;;;;;;;;0.00;0.00;;;;;13.72;73.32;102123.56;5011983;28;9173;-67
2022/09/19 10:58:26;;;;;;;;;2.00;0.00;;;;;13.53;73.38;102134.88;5014496;28;9130;-67
2022/09/19 11:01:23;;;;;;;;;0.67;0.67;;;;;13.38;73.54;102128.59;4974779;28;9188;-67
2022/09/19 11:04:03;;;;;;;;;0.00;0.00;;;;;13.36;73.88;102124.19;5031100;28;9079;-67
2022/09/19 11:06:32;;;;;;;;;0.00;0.00;;;;;13.39;73.70;102116.75;5031136;28;9001;-67
2022/09/19 11:09:05;;;;;;;;;0.00;0.00;;;;;13.45;74.28;102118.72;5026599;28;8946;-67
2022/09/19 11:11:48;;;;;;;;;0.00;0.00;;;;;13.47;74.06;102122.09;5012191;28;9159;-66
2022/09/19 11:14:35;;;;;;;;;0.00;0.00;;;;;13.47;74.20;102120.22;5031656;28;9020;-66
2022/09/19 11:17:27;;;;;;;;;0.00;0.00;;;;;13.58;74.38;102119.81;5026973;28;9042;-67
2022/09/19 11:20:03;;;;;;;;;0.00;0.00;;;;;13.74;74.24;102113.41;5011411;28;8998;-67
2022/09/19 11:23:13;;;;;;;;;0.00;0.00;;;;;13.87;74.30;102104.66;5014087;28;8994;-67
2022/09/19 11:25:55;;;;;;;;;0.00;0.00;;;;;13.99;74.22;102107.75;5031075;28;9172;-67
2022/09/19 11:28:46;;;;;;;;;2.00;1.00;;;;;14.09;74.02;102119.13;5013621;28;9647;-66
2022/09/19 11:31:35;;;;;;;;;3.33;2.00;;;;;14.12;73.70;102113.34;5010937;28;9672;-67
2022/09/19 11:34:31;;;;;;;;;1.00;1.00;;;;;14.17;73.82;102110.06;5011823;28;9064;-67
2022/09/19 11:37:41;;;;;;;;;1.00;1.00;;;;;14.20;73.00;102115.94;5010720;28;9022;-67
2022/09/19 11:40:36;;;;;;;;;0.33;0.00;;;;;14.31;72.56;102103.81;5010585;28;9659;-67
2022/09/19 11:43:30;;;;;;;;;0.00;0.00;;;;;14.39;71.96;102108.28;5010802;28;8923;-67
2022/09/19 11:46:20;;;;;;;;;0.00;0.00;;;;;14.28;70.00;102115.84;5015401;28;9081;-66
2022/09/19 11:49:07;;;;;;;;;0.00;0.00;;;;;14.25;69.14;102121.63;5012029;28;8950;-66
2022/09/19 11:51:50;;;;;;;;;0.00;0.00;;;;;14.17;68.16;102110.91;5011889;28;9016;-66
2022/09/19 11:54:50;;;;;;;;;2.67;0.00;;;;;14.30;68.30;102118.38;5011648;28;8836;-67
2022/09/19 11:57:47;;;;;;;;;0.00;0.00;;;;;14.35;67.90;102121.38;5010350;28;9020;-67
2022/09/19 12:00:18;;;;;;;;;0.00;0.00;;;;;14.34;68.03;102117.81;5019544;28;9770;-66
2022/09/19 12:03:02;;;;;;;;;0.00;0.00;;;;;14.30;68.29;102124.66;5031502;28;8832;-66
2022/09/19 12:06:02;;;;;;;;;0.00;0.00;;;;;14.23;68.04;102117.47;5033468;28;8821;-66
2022/09/19 12:08:58;;;;;;;;;0.25;0.00;;;;;14.25;67.49;102115.38;5013005;28;8962;-65
2022/09/19 12:11:44;;;;;;;;;0.00;0.00;;;;;14.34;67.51;102109.69;5014518;28;8841;-66
2022/09/19 12:14:25;;;;;;;;;0.00;0.00;;;;;14.47;68.42;102116.31;5029713;28;8816;-68
2022/09/19 12:17:02;;;;;;;;;0.75;0.75;;;;;14.59;68.37;102122.97;5024190;28;8854;-67
2022/09/19 12:19:44;;;;;;;;;0.33;0.00;;;;;14.45;67.42;102124.63;5010134;28;8831;-67
2022/09/19 12:22:20;;;;;;;;;1.00;0.00;;;;;14.39;67.35;102128.09;5011414;28;8915;-66
2022/09/19 12:24:53;;;;;;;;;0.67;0.67;;;;;14.36;69.08;102128.47;5011820;28;8855;-66
2022/09/19 12:27:39;;;;;;;;;0.00;0.00;;;;;14.38;69.95;102114.72;5010416;28;8988;-67
2022/09/19 12:30:14;;;;;;;;;0.00;0.00;;;;;14.39;70.40;102121.84;5016200;28;8997;-67
2022/09/19 12:32:47;;;;;;;;;0.00;0.00;;;;;14.40;70.83;102128.94;5028338;28;8968;-67
2022/09/19 12:35:35;;;;;;;;;0.50;0.00;;;;;14.42;71.48;102122.31;5014641;28;8929;-67